Anaconda, MT

11:10 PM MST on February 10, 2016 (GMT -0700)
goosetown 2 | | Change Station
CLOSE
Current Station
Personal Weather Station
Location: Anaconda, MT
Elevation: 5240 ft
Nearby Weather Stations

Elev 5240 ft 46.13 °N, 112.94 °W | Updated 3 hours ago

Partly Cloudy
Partly Cloudy
47.0 °F
Feels Like 47 °F
N
2.0
Wind Variable Wind from ENE
Gusts 2.0 mph

Today
High -- | Low -- °F
--% Chance of Precip.
Yesterday
High -- | Low -- °F
Precip. -- in
Pressure 30.40 in
Visibility 10.0 miles
Clouds Clear
Windchill 47 °F
Dew Point 23 °F
Humidity 39%
Rainfall 0.00 in
Snow Depth Not available.
7:42 AM 5:49 PM
Waxing Crescent, 9% visible
METAR KBTM 110553Z AUTO 15004KT 10SM CLR M05/M08 A3021 RMK AO2 SLP294 T10501078 10028 21056 55004
Pressure 30.40 in
Visibility 10.0 miles
Clouds Clear
Windchill 47 °F
Dew Point 23 °F
Humidity 39%
Rainfall 0.00 in
Snow Depth Not available.
7:42 AM 5:49 PM
Waxing Crescent, 9% visible
METAR KBTM 110553Z AUTO 15004KT 10SM CLR M05/M08 A3021 RMK AO2 SLP294 T10501078 10028 21056 55004

10-Day Weather Forecast

Almanac

Astronomy

Feb. 10, 2016 Rise Set
Actual Time
Civil Twilight
Nautical Twilight
Astronomical Twilight
Moon
Length of Visible Light
Length of Day
Tomorrow will be .
, % of the Moon is Illuminated

Today's Extremes

State Highs State Lows

Community

WunderPhotos

Upload Photos

1,892,028 photos uploaded!

WunderBlog® & News

Nearby

Air Quality

  Air Quality AQ Index Pollutant
Not available.

Snow Depth

Station Depth Elevation

Earthquake Activity

City Distance Mag. Time & Date
Minimum magnitude displayed is 2.5.

Coastal Water Temperatures

Place Temperature

Stations

Nearby Weather Stations

Station Location Temp. Windchill Dew Point Humidity Wind Precip. Elev Updated Type
                   

Watches & Warnings

There are currently no watches in effect.